createdAt,value
2018-02-01T00:00:10.259Z,74.10
2018-02-01T00:05:11.630Z,74.18
2018-02-01T00:10:12.938Z,74.45
2018-02-01T00:15:14.254Z,74.70
2018-02-01T00:20:16.365Z,75.22
2018-02-01T00:25:18.407Z,75.18
2018-02-01T00:30:19.755Z,75.45
2018-02-01T00:35:21.838Z,75.36
2018-02-01T00:40:23.165Z,75.48
2018-02-01T00:45:25.261Z,75.54
2018-02-01T00:50:26.570Z,75.75
2018-02-01T00:55:27.884Z,75.69
2018-02-01T01:00:29.214Z,75.99
2018-02-01T01:05:30.539Z,75.88
2018-02-01T01:10:31.856Z,76.25
2018-02-01T01:15:33.193Z,76.23
2018-02-01T01:20:35.256Z,76.27
2018-02-01T01:25:36.552Z,76.42
2018-02-01T01:30:37.872Z,76.32
2018-02-01T01:35:39.215Z,76.05
2018-02-01T01:40:40.542Z,75.93
2018-02-01T01:46:00.527Z,75.83
2018-02-01T01:51:01.842Z,75.88
2018-02-01T01:56:03.208Z,75.78
2018-02-01T02:01:04.489Z,75.67
2018-02-01T02:06:05.793Z,75.61
2018-02-01T02:11:07.147Z,75.78
2018-02-01T02:16:09.195Z,75.90
2018-02-01T02:21:10.524Z,75.80
2018-02-01T02:26:11.824Z,75.85
2018-02-01T02:31:13.879Z,76.06
2018-02-01T02:36:15.231Z,75.70
2018-02-01T02:41:16.544Z,75.67
2018-02-01T02:46:24.731Z,76.11
2018-02-01T02:51:26.043Z,75.78
2018-02-01T02:56:28.070Z,75.79
2018-02-01T03:01:29.388Z,75.76
2018-02-01T03:06:30.769Z,75.83
2018-02-01T03:11:32.128Z,75.81
2018-02-01T03:16:34.163Z,75.91
2018-02-01T03:21:35.487Z,75.97
2018-02-01T03:26:36.798Z,75.86
2018-02-01T03:31:38.866Z,76.11
2018-02-01T03:36:40.207Z,76.07
2018-02-01T03:41:41.542Z,76.20
2018-02-01T03:46:42.844Z,75.97
2018-02-01T03:51:44.151Z,75.98
2018-02-01T03:56:45.469Z,75.84
2018-02-01T04:01:47.539Z,75.82
2018-02-01T04:06:48.947Z,75.74
2018-02-01T04:11:50.375Z,75.53
2018-02-01T04:16:51.707Z,75.65
2018-02-01T04:21:53.011Z,75.77
2018-02-01T04:26:54.442Z,75.92
2018-02-01T04:31:55.832Z,75.77
2018-02-01T04:36:57.205Z,76.06
2018-02-01T04:41:59.570Z,75.92
2018-02-01T04:47:01.040Z,75.91
2018-02-01T04:52:02.671Z,75.76
2018-02-01T04:57:04.493Z,75.99
2018-02-01T05:02:05.822Z,75.93
2018-02-01T05:07:07.146Z,75.96
2018-02-01T05:12:09.214Z,76.08
2018-02-01T05:17:10.773Z,75.76
2018-02-01T05:22:12.320Z,75.71
2018-02-01T05:27:13.646Z,75.96
2018-02-01T05:32:14.986Z,75.79
2018-02-01T05:37:16.343Z,76.11
2018-02-01T05:42:18.404Z,75.83
2018-02-01T05:47:19.737Z,76.00
2018-02-01T05:52:21.067Z,75.78
2018-02-01T05:57:22.420Z,75.94
2018-02-01T06:02:24.463Z,75.78
2018-02-01T06:07:26.859Z,75.51
2018-02-01T06:12:28.189Z,75.46
2018-02-01T06:17:29.550Z,75.39
2018-02-01T06:22:30.895Z,75.26
2018-02-01T06:27:32.231Z,75.17
2018-02-01T06:32:33.592Z,75.23
2018-02-01T06:37:35.951Z,75.06
2018-02-01T06:42:37.275Z,74.88
2018-02-01T06:47:38.595Z,74.33
2018-02-01T06:52:40.655Z,74.11
2018-02-01T06:57:42.012Z,74.25
2018-02-01T07:02:43.408Z,74.08
2018-02-01T07:07:44.719Z,74.46
2018-02-01T07:12:46.043Z,74.80
2018-02-01T07:17:48.162Z,74.68
2018-02-01T07:22:49.555Z,74.20
2018-02-01T07:27:51.693Z,73.74
2018-02-01T07:32:53.529Z,73.29
2018-02-01T07:37:54.947Z,73.17
2018-02-01T07:42:57.656Z,73.27
2018-02-01T07:47:58.990Z,73.17
2018-02-01T07:53:00.366Z,73.17
2018-02-01T07:58:01.984Z,73.26
2018-02-01T08:03:03.328Z,73.39
2018-02-01T08:08:04.641Z,73.13
2018-02-01T08:13:05.978Z,72.95
2018-02-01T08:18:07.315Z,72.87
2018-02-01T08:23:08.647Z,72.50
2018-02-01T08:28:10.059Z,72.06
2018-02-01T08:33:11.694Z,72.34
2018-02-01T08:38:13.427Z,72.63
2018-02-01T08:43:14.735Z,72.64
2018-02-01T08:48:16.052Z,72.39
2018-02-01T08:53:18.155Z,72.08
2018-02-01T08:58:19.553Z,71.95
2018-02-01T09:03:21.632Z,71.57
2018-02-01T09:08:22.972Z,71.35
2018-02-01T09:13:24.332Z,71.29
2018-02-01T09:18:26.394Z,71.59
2018-02-01T09:23:28.049Z,70.83
2018-02-01T09:28:30.130Z,69.65
2018-02-01T09:33:31.493Z,68.71
2018-02-01T09:38:32.841Z,69.65
2018-02-01T09:43:34.193Z,69.27
2018-02-01T09:48:35.532Z,68.61
2018-02-01T09:53:36.847Z,67.90
2018-02-01T09:58:38.167Z,67.36
2018-02-01T10:03:39.507Z,67.07
2018-02-01T10:08:40.815Z,66.27
2018-02-01T10:13:42.179Z,66.91
2018-02-01T10:18:43.496Z,67.27
2018-02-01T10:23:44.803Z,67.87
2018-02-01T10:28:46.104Z,67.34
2018-02-01T10:33:47.466Z,67.08
2018-02-01T10:38:49.140Z,66.92
2018-02-01T10:43:50.707Z,66.30
2018-02-01T10:48:52.760Z,66.08
2018-02-01T10:53:54.147Z,65.35
2018-02-01T10:58:55.547Z,65.13
2018-02-01T11:03:57.013Z,64.64
2018-02-01T11:08:58.754Z,63.61
2018-02-01T11:14:00.423Z,63.01
2018-02-01T11:19:01.734Z,63.33
2018-02-01T11:24:04.284Z,63.28
2018-02-01T11:29:06.652Z,61.68
2018-02-01T11:34:07.999Z,61.64
2018-02-01T11:39:09.336Z,60.79
2018-02-01T11:44:11.386Z,60.56
2018-02-01T11:49:13.462Z,61.08
2018-02-01T11:54:15.044Z,59.23
2018-02-01T11:59:16.408Z,59.67
2018-02-01T12:04:17.746Z,59.81
2018-02-01T12:09:20.736Z,59.16
2018-02-01T12:14:22.164Z,60.15
2018-02-01T12:19:23.915Z,59.48
2018-02-01T12:24:26.832Z,60.30
2018-02-01T12:29:28.203Z,58.82
2018-02-01T12:34:30.415Z,58.59
2018-02-01T12:39:32.495Z,59.36
2018-02-01T12:44:33.817Z,62.10
2018-02-01T12:49:35.882Z,64.71
2018-02-01T12:54:37.277Z,64.96
2018-02-01T12:59:38.607Z,64.04
2018-02-01T13:04:41.966Z,65.05
2018-02-01T13:09:43.991Z,65.25
2018-02-01T13:14:46.351Z,65.22
2018-02-01T13:19:48.264Z,64.87
2018-02-01T13:24:50.723Z,64.96
2018-02-01T13:29:52.720Z,63.98
2018-02-01T13:34:54.249Z,64.03
2018-02-01T13:39:55.844Z,64.30
2018-02-01T13:44:57.314Z,64.12
2018-02-01T13:50:00.196Z,64.17
2018-02-01T13:55:01.974Z,64.51
2018-02-01T14:00:04.838Z,64.25
2018-02-01T14:05:06.467Z,64.11
2018-02-01T14:10:08.035Z,64.24
2018-02-01T14:15:09.445Z,64.35
2018-02-01T14:20:11.024Z,64.90
2018-02-01T14:25:12.597Z,65.05
2018-02-01T14:30:14.908Z,65.10
2018-02-01T14:40:18.259Z,64.92
2018-02-01T14:45:19.739Z,64.29
2018-02-01T14:50:21.098Z,64.14
2018-02-01T14:55:22.517Z,63.65
2018-02-01T15:00:23.865Z,64.02
2018-02-01T15:05:25.967Z,64.05
2018-02-01T15:10:28.124Z,64.19
2018-02-01T15:15:29.504Z,64.12
2018-02-01T15:20:30.856Z,64.99
2018-02-01T15:25:32.976Z,65.86
2018-02-01T15:30:34.340Z,66.06
2018-02-01T15:35:36.463Z,66.48
2018-02-01T15:40:38.540Z,66.87
2018-02-01T15:45:39.905Z,67.72
2018-02-01T15:50:41.246Z,67.41
2018-02-01T15:55:43.327Z,68.27
2018-02-01T16:00:44.863Z,69.21
2018-02-01T16:05:46.261Z,70.02
2018-02-01T16:10:47.631Z,70.43
2018-02-01T16:15:48.996Z,70.60
2018-02-01T16:20:51.138Z,70.43
2018-02-01T16:25:52.490Z,70.82
2018-02-01T16:30:53.890Z,70.99
2018-02-01T16:35:55.280Z,71.00
2018-02-01T16:40:56.621Z,70.66
2018-02-01T16:45:57.977Z,70.93
2018-02-01T16:51:00.053Z,70.89
2018-02-01T16:56:01.412Z,70.79
2018-02-01T17:01:02.776Z,71.08
2018-02-01T17:06:04.116Z,71.10
2018-02-01T17:11:05.440Z,70.78
2018-02-01T17:16:07.562Z,70.58
2018-02-01T17:21:08.896Z,71.05
2018-02-01T17:26:10.236Z,70.74
2018-02-01T17:31:11.567Z,70.57
2018-02-01T17:36:14.917Z,71.32
2018-02-01T17:41:16.280Z,72.75
2018-02-01T17:46:17.817Z,73.01
2018-02-01T17:51:19.181Z,73.32
2018-02-01T17:56:20.591Z,73.08
2018-02-01T18:01:21.930Z,73.22
2018-02-01T18:06:23.302Z,72.97
2018-02-01T18:11:24.646Z,72.83
2018-02-01T18:16:25.991Z,73.03
2018-02-01T18:21:27.822Z,73.34
2018-02-01T18:26:29.361Z,73.06
2018-02-01T18:31:30.794Z,73.74
2018-02-01T18:36:32.183Z,73.91
2018-02-01T18:41:34.566Z,74.03
2018-02-01T18:46:36.139Z,73.65
2018-02-01T18:51:37.959Z,73.43
2018-02-01T18:56:40.996Z,72.92
2018-02-01T19:01:42.386Z,72.62
2018-02-01T19:06:44.274Z,72.71
2018-02-01T19:11:46.335Z,72.87
2018-02-01T19:16:47.733Z,72.87
2018-02-01T19:21:49.199Z,73.78
2018-02-01T19:26:54.340Z,73.85
2018-02-01T19:31:55.719Z,74.06
2018-02-01T19:36:57.023Z,73.69
2018-02-01T19:41:59.368Z,73.72
2018-02-01T19:47:01.096Z,73.87
2018-02-01T19:52:03.016Z,73.70
2018-02-01T19:57:05.015Z,73.38
2018-02-01T20:02:06.811Z,73.14
2018-02-01T20:07:08.151Z,73.05
2018-02-01T20:12:09.490Z,73.15
2018-02-01T20:17:17.933Z,73.62
2018-02-01T20:22:19.252Z,73.17
2018-02-01T20:27:20.595Z,73.31
2018-02-01T20:32:22.187Z,73.25
2018-02-01T20:37:23.549Z,73.03
2018-02-01T20:42:25.643Z,73.31
2018-02-01T20:47:27.047Z,73.22
2018-02-01T20:52:29.135Z,73.04
2018-02-01T20:57:30.546Z,73.16
2018-02-01T21:02:32.692Z,73.54
2018-02-01T21:07:34.052Z,73.59
2018-02-01T21:12:35.412Z,73.62
2018-02-01T21:17:36.860Z,73.78
2018-02-01T21:22:38.208Z,73.70
2018-02-01T21:27:40.300Z,73.38
2018-02-01T21:32:41.660Z,72.93
2018-02-01T21:37:42.990Z,73.09
2018-02-01T21:42:44.347Z,73.12
2018-02-01T21:47:45.700Z,73.30
2018-02-01T21:52:47.131Z,73.33
2018-02-01T21:57:48.604Z,73.12
2018-02-01T22:02:50.064Z,73.09
2018-02-01T22:07:51.450Z,73.11
2018-02-01T22:12:53.507Z,73.08
2018-02-01T22:17:54.850Z,72.92
2018-02-01T22:22:57.214Z,72.73
2018-02-01T22:27:58.561Z,72.82
2018-02-01T22:32:59.916Z,72.78
2018-02-01T22:38:01.290Z,72.72
2018-02-01T22:43:02.687Z,72.95
2018-02-01T22:48:04.004Z,72.86
2018-02-01T22:53:06.103Z,72.96
2018-02-01T22:58:07.419Z,72.62
2018-02-01T23:03:08.745Z,71.94
2018-02-01T23:08:10.106Z,71.60
2018-02-01T23:13:11.458Z,71.66
2018-02-01T23:18:12.817Z,71.32
2018-02-01T23:23:14.143Z,71.08
2018-02-01T23:28:16.211Z,71.10
2018-02-01T23:33:17.518Z,71.60
2018-02-01T23:38:18.851Z,72.20
2018-02-01T23:43:20.184Z,72.24
2018-02-01T23:48:21.498Z,72.27
2018-02-01T23:53:22.845Z,72.13
2018-02-01T23:58:24.158Z,72.10
